Time;durP1;ratioP1;P1;durP2;ratioP2;P2;SDS_P1;SDS_P2;PMS_P1;PMS_P2;Temp;Humidity;BMP_temperature;BMP_pressure;BME280_temperature;BME280_humidity;BME280_pressure;Samples;Min_cycle;Max_cycle;Signal;HPM_P1;HPM_P2
2022/11/08 00:02:12;;;;;;;16.55;3.60;;;15.90;99.90;;;;;;5047586;28;20038;-70
2022/11/08 00:04:38;;;;;;;10.20;2.85;;;15.60;99.90;;;;;;5050056;28;20032;-70
2022/11/08 00:15:16;;;;;;;12.73;3.08;;;16.00;99.90;;;;;;5050048;28;20140;-70
2022/11/08 00:17:42;;;;;;;13.52;3.42;;;14.90;99.90;;;;;;5032671;28;20131;-70
2022/11/08 00:20:08;;;;;;;16.85;3.35;;;16.00;99.90;;;;;;5048618;28;20045;-70
2022/11/08 00:22:34;;;;;;;12.50;3.60;;;14.20;99.90;;;;;;5050608;28;20603;-70
2022/11/08 00:24:59;;;;;;;12.23;2.92;;;14.40;99.90;;;;;;5048694;28;20041;-70
2022/11/08 00:27:26;;;;;;;9.85;3.08;;;15.60;99.90;;;;;;5044353;28;20462;-70
2022/11/08 00:29:51;;;;;;;15.75;5.40;;;14.40;99.90;;;;;;5042766;28;20041;-70
2022/11/08 00:32:20;;;;;;;13.88;2.90;;;14.80;99.90;;;;;;5046749;28;20098;-70
2022/11/08 00:34:47;;;;;;;10.85;3.05;;;15.40;99.90;;;;;;5046394;28;20048;-70
2022/11/08 00:37:13;;;;;;;18.35;3.42;;;14.30;99.90;;;;;;5030030;28;20068;-70
2022/11/08 00:39:39;;;;;;;9.25;2.92;;;16.00;99.90;;;;;;5047881;28;20052;-70
2022/11/08 00:42:05;;;;;;;11.57;2.92;;;16.00;99.90;;;;;;5049511;28;20475;-70
2022/11/08 00:44:31;;;;;;;14.70;3.80;;;14.80;99.90;;;;;;5044412;28;20076;-70
2022/11/08 00:46:57;;;;;;;17.52;3.25;;;15.70;99.90;;;;;;5045652;28;20040;-70
2022/11/08 00:49:22;;;;;;;12.38;3.05;;;14.40;99.90;;;;;;5031284;28;20308;-70
2022/11/08 00:51:48;;;;;;;9.25;3.05;;;15.80;99.90;;;;;;5047344;28;20124;-70
2022/11/08 00:54:16;;;;;;;12.30;2.58;;;16.20;99.90;;;;;;5049040;28;20044;-70
2022/11/08 00:56:42;;;;;;;8.07;2.50;;;14.20;99.90;;;;;;5047627;28;20495;-70
2022/11/08 00:59:11;;;;;;;11.93;3.00;;;14.80;99.90;;;;;;5041810;28;20110;-70
2022/11/08 01:01:37;;;;;;;12.20;2.42;;;15.50;99.90;;;;;;5046059;28;20040;-70
2022/11/08 01:04:03;;;;;;;8.05;2.83;;;14.30;99.90;;;;;;5048630;28;20044;-70
2022/11/08 01:06:28;;;;;;;11.32;2.80;;;15.40;99.90;;;;;;5049164;28;20037;-70
2022/11/08 01:08:54;;;;;;;12.57;2.72;;;15.20;99.90;;;;;;5047138;28;20043;-70
2022/11/08 01:11:22;;;;;;;12.60;2.70;;;15.30;99.90;;;;;;5048454;28;20445;-70
2022/11/08 01:13:48;;;;;;;15.27;2.88;;;13.80;99.90;;;;;;5048656;28;20052;-70
2022/11/08 01:16:17;;;;;;;13.15;3.10;;;14.50;99.90;;;;;;5049090;28;20494;-70
2022/11/08 01:18:44;;;;;;;11.07;3.17;;;13.80;99.90;;;;;;5047171;28;20090;-70
2022/11/08 01:21:10;;;;;;;11.20;3.25;;;13.90;99.90;;;;;;5047935;28;20041;-70
2022/11/08 01:23:36;;;;;;;13.45;3.70;;;15.20;99.90;;;;;;5047386;28;20036;-70
2022/11/08 01:26:04;;;;;;;14.43;2.67;;;13.70;99.90;;;;;;5038320;28;20072;-70
2022/11/08 01:28:30;;;;;;;8.10;2.22;;;14.90;99.90;;;;;;5043321;28;20112;-70
2022/11/08 01:30:56;;;;;;;7.28;2.42;;;15.20;99.90;;;;;;5043355;28;20124;-70
2022/11/08 01:33:21;;;;;;;8.48;2.45;;;14.00;99.90;;;;;;5035180;28;20120;-70
2022/11/08 01:35:47;;;;;;;17.38;3.05;;;13.70;99.90;;;;;;5049974;28;20033;-70
2022/11/08 01:38:13;;;;;;;8.68;3.45;;;13.80;99.90;;;;;;5053216;28;20123;-70
2022/11/08 01:40:46;;;;;;;11.48;3.28;;;14.00;99.90;;;;;;5052473;28;20072;-70
2022/11/08 01:43:24;;;;;;;10.00;2.47;;;14.70;99.90;;;;;;5051241;28;20039;-70
2022/11/08 01:46:18;;;;;;;16.35;2.80;;;13.70;99.90;;;;;;5042540;28;20037;-70
2022/11/08 01:48:53;;;;;;;11.68;3.03;;;13.50;99.90;;;;;;5049888;28;20557;-70
2022/11/08 01:51:23;;;;;;;13.32;2.33;;;13.70;99.90;;;;;;5050945;28;20045;-70
2022/11/08 01:53:50;;;;;;;12.05;3.40;;;13.60;99.90;;;;;;5053047;28;20052;-70
2022/11/08 01:56:16;;;;;;;9.40;2.40;;;13.50;99.90;;;;;;5049617;28;20540;-70
2022/11/08 01:58:44;;;;;;;11.57;2.67;;;15.10;99.90;;;;;;5050086;28;20041;-70
2022/11/08 02:01:11;;;;;;;8.60;2.55;;;14.30;99.90;;;;;;5050804;28;20044;-70
2022/11/08 02:03:38;;;;;;;11.30;3.10;;;13.50;99.90;;;;;;5048919;28;20471;-70
2022/11/08 02:06:04;;;;;;;6.68;2.25;;;14.90;99.90;;;;;;5035693;28;20052;-70
2022/11/08 02:08:41;;;;;;;10.65;2.78;;;14.00;99.90;;;;;;5035216;28;20529;-70
2022/11/08 02:11:09;;;;;;;5.05;2.17;;;13.30;99.90;;;;;;5051128;28;20167;-70
2022/11/08 02:13:37;;;;;;;10.50;2.72;;;14.00;99.90;;;;;;5047653;28;20444;-70
2022/11/08 02:16:09;;;;;;;15.35;2.63;;;14.10;99.90;;;;;;5051463;28;20124;-70
2022/11/08 02:18:35;;;;;;;6.18;2.15;;;14.90;99.90;;;;;;5049796;28;20044;-70
2022/11/08 02:21:27;;;;;;;6.10;1.95;;;15.00;99.90;;;;;;5051000;28;20490;-70
2022/11/08 02:23:59;;;;;;;8.77;2.42;;;13.60;99.90;;;;;;5047069;28;20082;-70
2022/11/08 02:26:30;;;;;;;9.57;2.75;;;14.90;99.90;;;;;;5048022;28;20037;-70
2022/11/08 02:28:56;;;;;;;8.10;2.55;;;13.20;99.90;;;;;;5048514;28;20115;-70
2022/11/08 02:31:21;;;;;;;10.65;2.40;;;14.90;99.90;;;;;;5047399;28;20119;-70
2022/11/08 02:33:47;;;;;;;7.88;2.53;;;14.80;99.90;;;;;;5041450;28;20037;-70
2022/11/08 02:36:16;;;;;;;12.23;3.70;;;13.30;99.90;;;;;;5031835;28;20033;-70
2022/11/08 02:38:50;;;;;;;5.65;1.95;;;14.90;99.90;;;;;;5049210;28;20033;-70
2022/11/08 02:41:16;;;;;;;14.00;2.63;;;14.10;99.90;;;;;;5043417;28;20048;-70
2022/11/08 02:43:41;;;;;;;10.30;2.28;;;14.90;99.90;;;;;;5048200;28;20574;-70
2022/11/08 02:46:07;;;;;;;9.13;2.58;;;13.30;99.90;;;;;;5048591;28;20076;-70
2022/11/08 02:48:32;;;;;;;9.15;2.30;;;14.20;99.90;;;;;;5050277;28;20033;-70
2022/11/08 02:50:58;;;;;;;6.43;2.13;;;13.20;99.90;;;;;;5050082;28;20037;-70
2022/11/08 02:53:23;;;;;;;19.58;2.78;;;13.10;99.90;;;;;;5051991;28;20045;-70
2022/11/08 02:55:49;;;;;;;9.20;1.90;;;14.70;99.90;;;;;;5042819;28;20037;-70
2022/11/08 02:58:14;;;;;;;8.45;2.47;;;13.10;99.90;;;;;;5040128;28;20446;-70
2022/11/08 03:00:40;;;;;;;12.77;2.80;;;14.60;99.90;;;;;;5022515;28;20513;-70
2022/11/08 03:03:06;;;;;;;8.88;2.30;;;14.40;99.90;;;;;;5045875;28;20402;-70
2022/11/08 03:05:32;;;;;;;8.02;2.28;;;14.50;99.90;;;;;;5051670;28;20119;-70
2022/11/08 03:07:57;;;;;;;4.50;2.17;;;14.00;99.90;;;;;;5052175;28;20398;-70
2022/11/08 03:10:24;;;;;;;8.00;2.25;;;13.10;99.90;;;;;;5049051;28;20060;-70
2022/11/08 03:12:58;;;;;;;9.02;1.88;;;13.30;99.90;;;;;;5049633;28;20098;-70
2022/11/08 03:15:24;;;;;;;10.10;2.50;;;14.40;99.90;;;;;;5047861;28;20045;-70
2022/11/08 03:17:51;;;;;;;10.60;2.30;;;14.50;99.90;;;;;;5038893;28;20094;-70
2022/11/08 03:20:17;;;;;;;9.45;2.47;;;13.50;99.90;;;;;;5049849;28;20127;-70
2022/11/08 03:22:43;;;;;;;6.60;2.22;;;14.50;99.90;;;;;;5046804;28;20045;-70
2022/11/08 03:25:09;;;;;;;13.98;2.17;;;14.60;99.90;;;;;;5039939;28;20033;-70
2022/11/08 03:27:34;;;;;;;10.43;2.85;;;13.10;99.90;;;;;;5044738;28;20056;-70
2022/11/08 03:30:00;;;;;;;11.35;2.47;;;13.20;99.90;;;;;;5049527;28;20466;-71
2022/11/08 03:32:25;;;;;;;7.22;2.20;;;14.40;99.90;;;;;;5052311;28;20072;-70
2022/11/08 03:34:51;;;;;;;6.93;2.30;;;13.40;99.90;;;;;;5038998;28;20028;-70
2022/11/08 03:37:16;;;;;;;7.18;2.28;;;13.00;99.90;;;;;;5045607;28;20070;-70
2022/11/08 03:39:42;;;;;;;9.75;2.20;;;14.50;99.90;;;;;;5032227;28;20514;-70
2022/11/08 03:42:07;;;;;;;8.85;2.55;;;13.40;99.90;;;;;;5050707;28;20102;-70
2022/11/08 03:44:33;;;;;;;8.65;1.95;;;14.30;99.90;;;;;;5046540;28;20419;-70
2022/11/08 03:46:59;;;;;;;8.00;2.30;;;12.90;99.90;;;;;;5046075;28;20037;-70
2022/11/08 03:49:25;;;;;;;9.43;2.47;;;12.80;99.90;;;;;;5031379;28;20487;-70
2022/11/08 03:51:52;;;;;;;9.30;2.25;;;14.30;99.90;;;;;;5028377;28;20045;-70
2022/11/08 03:54:17;;;;;;;11.60;2.95;;;14.40;99.90;;;;;;5046380;28;20518;-70
2022/11/08 03:56:43;;;;;;;7.75;1.98;;;12.80;99.90;;;;;;5044310;28;20033;-70
2022/11/08 03:59:10;;;;;;;8.25;2.40;;;12.90;99.90;;;;;;5041672;28;20124;-70
2022/11/08 04:01:36;;;;;;;12.35;2.38;;;13.30;99.90;;;;;;5048608;28;20037;-70
2022/11/08 04:04:01;;;;;;;5.18;2.08;;;12.90;99.90;;;;;;5050752;28;20059;-70
2022/11/08 04:06:27;;;;;;;13.65;2.30;;;14.00;99.90;;;;;;5051113;28;20071;-70
2022/11/08 04:08:53;;;;;;;7.75;2.15;;;13.90;99.90;;;;;;5034155;28;20044;-70
2022/11/08 04:16:47;;;;;;;6.85;2.00;;;12.90;99.90;;;;;;5048851;28;20138;-70
2022/11/08 04:21:56;;;;;;;6.97;2.42;;;12.70;99.90;;;;;;5044383;28;20128;-70
2022/11/08 04:24:22;;;;;;;6.57;2.08;;;14.40;99.90;;;;;;5022600;28;20507;-70
2022/11/08 04:26:47;;;;;;;7.05;1.92;;;14.20;99.90;;;;;;5050017;28;20044;-70
2022/11/08 04:29:13;;;;;;;10.93;2.58;;;14.30;99.90;;;;;;5033753;28;20364;-70
2022/11/08 04:31:39;;;;;;;7.80;2.15;;;12.80;99.90;;;;;;5048161;28;20115;-70
2022/11/08 04:34:05;;;;;;;9.40;2.40;;;12.90;99.90;;;;;;5033082;28;20033;-70
2022/11/08 04:36:32;;;;;;;9.38;2.28;;;14.30;99.90;;;;;;5050144;28;20045;-70
2022/11/08 04:38:58;;;;;;;4.75;1.85;;;13.30;99.90;;;;;;5045458;28;20041;-70
2022/11/08 04:41:25;;;;;;;7.45;2.50;;;12.90;99.90;;;;;;5045074;28;20041;-70
2022/11/08 04:43:53;;;;;;;16.83;3.45;;;13.80;99.90;;;;;;5047517;28;20032;-70
2022/11/08 04:46:27;;;;;;;5.88;2.25;;;14.20;99.90;;;;;;5032754;28;20461;-70
2022/11/08 04:48:55;;;;;;;9.82;2.28;;;13.80;99.90;;;;;;5030019;28;20053;-70
2022/11/08 04:51:26;;;;;;;8.18;2.30;;;12.80;99.90;;;;;;5030978;28;20037;-70
2022/11/08 04:53:53;;;;;;;11.23;2.80;;;12.80;99.90;;;;;;5049142;28;20136;-70
2022/11/08 04:56:20;;;;;;;7.53;2.05;;;13.90;99.90;;;;;;5046922;28;20130;-70
2022/11/08 04:58:48;;;;;;;6.45;2.10;;;12.80;99.90;;;;;;5048838;28;20045;-70
2022/11/08 05:01:16;;;;;;;8.73;2.60;;;14.20;99.90;;;;;;5049136;28;20037;-70
2022/11/08 05:03:44;;;;;;;8.52;2.13;;;13.30;99.90;;;;;;5047090;28;20045;-70
2022/11/08 05:06:12;;;;;;;8.23;2.28;;;14.10;99.90;;;;;;5049548;28;20037;-70
2022/11/08 05:08:38;;;;;;;7.53;2.38;;;13.80;99.90;;;;;;5047488;28;20048;-70
2022/11/08 05:11:07;;;;;;;9.43;3.42;;;13.00;99.90;;;;;;5050469;28;20110;-70
2022/11/08 05:13:33;;;;;;;7.55;2.25;;;12.90;99.90;;;;;;5052476;28;20482;-70
2022/11/08 05:16:05;;;;;;;8.40;2.22;;;13.40;99.90;;;;;;5052926;28;20049;-70
2022/11/08 05:18:32;;;;;;;11.35;2.38;;;13.50;99.90;;;;;;5051935;28;20413;-70
2022/11/08 05:23:44;;;;;;;8.43;2.30;;;14.00;99.90;;;;;;5040620;28;20583;-70
2022/11/08 05:26:11;;;;;;;10.60;2.78;;;13.30;99.90;;;;;;5051220;28;20055;-70
2022/11/08 05:28:36;;;;;;;8.65;2.00;;;13.30;99.90;;;;;;5043472;28;20490;-70
2022/11/08 05:31:03;;;;;;;8.75;2.60;;;13.50;99.90;;;;;;5049240;28;20039;-70
2022/11/08 05:33:29;;;;;;;8.85;2.75;;;12.90;99.90;;;;;;5051344;28;20040;-70
2022/11/08 05:35:55;;;;;;;6.72;2.40;;;14.00;99.90;;;;;;5049758;28;20038;-70
2022/11/08 05:38:20;;;;;;;6.80;2.35;;;13.10;99.90;;;;;;5052402;28;20075;-70
2022/11/08 05:40:46;;;;;;;11.38;2.85;;;13.70;99.90;;;;;;5052756;28;20095;-70
2022/11/08 05:43:12;;;;;;;8.77;2.50;;;13.70;99.90;;;;;;5050968;28;20037;-70
2022/11/08 05:45:38;;;;;;;9.82;2.33;;;12.50;99.90;;;;;;5051799;28;20445;-70
2022/11/08 05:48:04;;;;;;;14.75;2.55;;;12.40;99.90;;;;;;5039308;28;20124;-70
2022/11/08 05:50:31;;;;;;;10.00;2.70;;;13.70;99.90;;;;;;5046173;28;20258;-70
2022/11/08 05:52:57;;;;;;;8.48;2.25;;;12.20;99.90;;;;;;5050770;28;20083;-70
2022/11/08 05:55:22;;;;;;;5.47;2.30;;;13.70;99.90;;;;;;5050397;28;20531;-70
2022/11/08 05:57:48;;;;;;;7.70;2.50;;;13.80;99.90;;;;;;5050673;28;20402;-70
2022/11/08 06:00:14;;;;;;;6.28;2.35;;;13.10;99.90;;;;;;5052178;28;20395;-70
2022/11/08 06:02:39;;;;;;;5.47;1.70;;;13.70;99.90;;;;;;5052795;28;20037;-70
2022/11/08 06:05:06;;;;;;;8.32;2.42;;;12.90;99.90;;;;;;5034216;28;20407;-70
2022/11/08 06:07:32;;;;;;;8.75;2.85;;;12.40;99.90;;;;;;5051518;28;20102;-70
2022/11/08 06:09:57;;;;;;;10.27;2.53;;;13.40;99.90;;;;;;5050974;28;20057;-70
2022/11/08 06:12:23;;;;;;;6.70;2.67;;;13.50;99.90;;;;;;5053014;28;20402;-70
2022/11/08 06:14:48;;;;;;;7.30;2.10;;;13.70;99.90;;;;;;5025042;28;20506;-70
2022/11/08 06:17:14;;;;;;;9.07;2.45;;;13.60;99.90;;;;;;5042889;28;20068;-70
2022/11/08 06:19:39;;;;;;;10.80;2.40;;;12.60;99.90;;;;;;5033376;28;20049;-70
2022/11/08 06:22:05;;;;;;;7.40;2.38;;;13.70;99.90;;;;;;5049781;28;20040;-70
2022/11/08 06:24:30;;;;;;;9.65;2.22;;;13.00;99.90;;;;;;5051012;28;20051;-70
2022/11/08 06:26:56;;;;;;;8.10;1.83;;;13.00;99.90;;;;;;5034007;28;20131;-70
2022/11/08 06:29:22;;;;;;;5.97;2.35;;;12.00;99.90;;;;;;5050189;28;20127;-70
2022/11/08 06:31:47;;;;;;;5.68;2.22;;;12.50;99.90;;;;;;5046135;28;20395;-70
2022/11/08 06:34:13;;;;;;;5.45;2.17;;;12.00;99.90;;;;;;5041021;28;20627;-70
2022/11/08 06:36:39;;;;;;;8.80;1.98;;;14.60;99.90;;;;;;5052575;28;20032;-70
2022/11/08 06:39:04;;;;;;;9.75;2.65;;;13.10;99.90;;;;;;5052267;28;20033;-70
2022/11/08 06:41:31;;;;;;;5.90;2.38;;;13.20;99.90;;;;;;5039555;28;20083;-70
2022/11/08 06:43:57;;;;;;;5.50;2.33;;;12.20;99.90;;;;;;5050511;28;20576;-71
2022/11/08 06:46:23;;;;;;;5.63;1.92;;;13.60;99.90;;;;;;5050256;28;20041;-70
2022/11/08 06:48:49;;;;;;;10.50;2.50;;;12.70;99.90;;;;;;5049781;28;20490;-70
2022/11/08 06:51:14;;;;;;;9.45;2.30;;;13.20;99.90;;;;;;5051055;28;20041;-70
2022/11/08 06:53:40;;;;;;;5.70;2.45;;;12.90;99.90;;;;;;5051277;28;20045;-70
2022/11/08 06:56:06;;;;;;;8.57;2.85;;;12.20;99.90;;;;;;5050547;28;20036;-70
2022/11/08 06:58:31;;;;;;;7.47;1.98;;;11.80;99.90;;;;;;5051435;28;20065;-70
2022/11/08 07:01:01;;;;;;;4.28;1.80;;;12.60;99.90;;;;;;5033053;28;20052;-70
2022/11/08 07:03:26;;;;;;;7.30;2.50;;;12.30;99.90;;;;;;5041236;28;20037;-70
2022/11/08 07:05:52;;;;;;;5.97;2.42;;;11.90;99.90;;;;;;5026851;28;20036;-70
2022/11/08 07:08:18;;;;;;;8.15;2.78;;;12.00;99.90;;;;;;5043065;28;20481;-70
2022/11/08 07:10:44;;;;;;;8.50;2.42;;;12.30;99.90;;;;;;5037806;28;20064;-70
2022/11/08 07:13:11;;;;;;;6.88;2.10;;;12.40;99.90;;;;;;5037124;28;20495;-69
2022/11/08 07:15:38;;;;;;;5.95;1.88;;;12.30;99.90;;;;;;5048388;28;20130;-69
2022/11/08 07:18:09;;;;;;;11.27;2.13;;;12.20;99.90;;;;;;5046591;28;20099;-69
2022/11/08 07:20:35;;;;;;;4.28;2.08;;;12.70;99.90;;;;;;5050242;28;20120;-69
2022/11/08 07:23:01;;;;;;;5.50;1.77;;;12.40;99.90;;;;;;5042204;28;20026;-69
2022/11/08 07:25:28;;;;;;;9.10;2.03;;;13.40;99.90;;;;;;5049373;28;20037;-69
2022/11/08 07:27:55;;;;;;;7.63;2.05;;;12.00;99.90;;;;;;5045548;28;20129;-69
2022/11/08 07:30:20;;;;;;;3.15;1.65;;;12.30;99.90;;;;;;5041676;28;20037;-69
2022/11/08 07:32:46;;;;;;;7.50;2.45;;;12.00;99.90;;;;;;5047082;28;20063;-69
2022/11/08 07:35:12;;;;;;;6.28;1.92;;;12.00;99.90;;;;;;5049294;28;20037;-69
2022/11/08 07:37:37;;;;;;;6.03;2.00;;;12.80;99.90;;;;;;5048097;28;20133;-69
2022/11/08 07:40:03;;;;;;;9.98;2.88;;;13.30;99.90;;;;;;5047608;28;20543;-69
2022/11/08 07:42:29;;;;;;;5.45;2.20;;;13.40;99.90;;;;;;5049618;28;20028;-69
2022/11/08 07:44:54;;;;;;;6.43;1.85;;;12.70;99.90;;;;;;5027956;28;20033;-69
2022/11/08 07:47:20;;;;;;;9.95;2.28;;;13.30;99.90;;;;;;5032249;28;20040;-69
2022/11/08 07:49:45;;;;;;;4.38;1.88;;;13.50;99.90;;;;;;5046978;28;20816;-69
2022/11/08 07:52:11;;;;;;;4.97;2.05;;;13.50;99.90;;;;;;5048142;28;20490;-69
2022/11/08 07:54:36;;;;;;;5.47;1.95;;;13.30;99.90;;;;;;5050089;28;20529;-69
2022/11/08 07:57:02;;;;;;;4.07;1.80;;;13.50;99.90;;;;;;5047175;28;20073;-69
2022/11/08 07:59:27;;;;;;;9.82;2.00;;;13.30;99.90;;;;;;5038284;28;20084;-69
2022/11/08 08:01:53;;;;;;;3.70;2.15;;;13.20;99.90;;;;;;5046713;28;20056;-69
2022/11/08 08:04:19;;;;;;;4.93;1.92;;;13.60;99.90;;;;;;5048423;28;20033;-69
2022/11/08 08:06:44;;;;;;;7.07;2.47;;;12.70;99.90;;;;;;5048643;28;20056;-69
2022/11/08 08:09:10;;;;;;;5.72;2.25;;;12.50;99.90;;;;;;5045037;28;20037;-69
2022/11/08 08:11:35;;;;;;;3.33;1.58;;;12.60;99.90;;;;;;5050243;28;20076;-69
2022/11/08 08:14:01;;;;;;;5.47;2.05;;;12.80;99.90;;;;;;5043483;28;20045;-69
2022/11/08 08:16:27;;;;;;;6.07;2.15;;;13.30;99.90;;;;;;5042087;28;20483;-69
2022/11/08 08:18:52;;;;;;;5.55;2.15;;;14.00;99.90;;;;;;5043155;28;20118;-69
2022/11/08 08:21:18;;;;;;;4.60;1.73;;;13.00;99.90;;;;;;5041686;28;20099;-69
2022/11/08 08:23:43;;;;;;;3.45;1.60;;;13.20;99.90;;;;;;5041849;28;20145;-70
2022/11/08 08:26:09;;;;;;;2.33;1.45;;;14.80;99.90;;;;;;5042869;28;20049;-70
2022/11/08 08:28:35;;;;;;;5.97;1.90;;;13.50;99.90;;;;;;5042943;28;20029;-70
2022/11/08 08:31:00;;;;;;;4.68;2.00;;;14.30;99.90;;;;;;5042536;28;20052;-69
2022/11/08 08:33:26;;;;;;;4.93;1.73;;;13.70;99.90;;;;;;5043740;28;20494;-69
2022/11/08 08:35:52;;;;;;;5.93;1.77;;;14.40;99.90;;;;;;5043954;28;20037;-70
2022/11/08 08:38:19;;;;;;;2.50;1.35;;;13.90;99.90;;;;;;5051804;28;20035;-70
2022/11/08 08:40:44;;;;;;;4.40;1.55;;;13.70;99.90;;;;;;5048877;28;20478;-70
2022/11/08 08:43:10;;;;;;;3.90;1.67;;;14.40;99.90;;;;;;5050561;28;20044;-69
2022/11/08 08:45:36;;;;;;;8.80;2.00;;;13.90;99.90;;;;;;5037583;28;20040;-70
2022/11/08 08:48:01;;;;;;;2.97;1.55;;;14.20;99.90;;;;;;5041785;28;20057;-70
2022/11/08 08:50:29;;;;;;;4.75;1.55;;;13.90;99.90;;;;;;5043368;28;20036;-70
2022/11/08 08:53:02;;;;;;;4.88;1.92;;;14.30;99.90;;;;;;5047062;28;20099;-69
2022/11/08 08:55:28;;;;;;;6.72;2.00;;;14.40;99.90;;;;;;5042363;28;20686;-69
2022/11/08 08:57:54;;;;;;;4.32;1.67;;;13.80;99.90;;;;;;5045325;28;20033;-69
2022/11/08 09:00:21;;;;;;;6.55;2.05;;;13.80;99.90;;;;;;5042358;28;20071;-70
2022/11/08 09:02:46;;;;;;;2.30;1.45;;;13.70;99.90;;;;;;5049509;28;20540;-70
2022/11/08 09:05:12;;;;;;;2.95;1.65;;;14.10;99.90;;;;;;5047815;28;20045;-70
2022/11/08 09:07:39;;;;;;;5.65;1.77;;;14.30;99.90;;;;;;5047645;28;20033;-70
2022/11/08 09:10:06;;;;;;;2.90;1.60;;;14.10;99.90;;;;;;5049432;28;20140;-70
2022/11/08 09:12:33;;;;;;;3.10;1.63;;;14.20;99.90;;;;;;5049842;28;20421;-70
2022/11/08 09:14:58;;;;;;;3.75;1.90;;;13.70;99.90;;;;;;5047019;28;20033;-70
2022/11/08 09:17:25;;;;;;;3.72;1.73;;;14.30;99.90;;;;;;5048278;28;20071;-70
2022/11/08 09:19:51;;;;;;;4.10;2.22;;;13.60;99.90;;;;;;5048863;28;20041;-69
2022/11/08 09:22:16;;;;;;;3.45;1.70;;;13.70;99.90;;;;;;5047807;28;20032;-69
2022/11/08 09:24:42;;;;;;;3.22;1.60;;;13.60;99.90;;;;;;5048138;28;20064;-70
2022/11/08 09:27:07;;;;;;;2.65;1.42;;;13.70;99.90;;;;;;5049913;28;20399;-70
2022/11/08 09:29:33;;;;;;;2.15;1.40;;;14.30;99.90;;;;;;5048338;28;20076;-70
2022/11/08 09:32:00;;;;;;;3.80;1.63;;;14.00;99.90;;;;;;5028997;28;20414;-70
2022/11/08 09:34:26;;;;;;;3.50;1.83;;;14.30;99.90;;;;;;5046083;28;20067;-70
2022/11/08 09:36:51;;;;;;;2.67;1.60;;;14.20;99.90;;;;;;5048950;28;20037;-70
2022/11/08 09:39:17;;;;;;;4.30;1.83;;;14.20;99.90;;;;;;5049160;28;20486;-70
2022/11/08 09:42:13;;;;;;;8.65;1.85;;;14.40;99.90;;;;;;5046210;28;20367;-70
2022/11/08 09:44:54;;;;;;;7.95;2.00;;;14.40;99.90;;;;;;5047511;28;20474;-70
2022/11/08 09:47:23;;;;;;;4.10;1.75;;;14.50;99.90;;;;;;5058676;28;20041;-70
2022/11/08 09:50:24;;;;;;;3.60;1.60;;;14.20;99.90;;;;;;5063308;28;20044;-70
2022/11/08 09:53:13;;;;;;;3.08;1.80;;;13.90;99.90;;;;;;5012387;28;20052;-69
2022/11/08 09:55:44;;;;;;;3.35;1.67;;;14.40;99.90;;;;;;5040537;28;20049;-69
2022/11/08 09:58:22;;;;;;;3.85;2.00;;;14.00;99.90;;;;;;5049556;28;20110;-69
2022/11/08 10:00:52;;;;;;;3.20;1.73;;;13.80;99.90;;;;;;5035356;28;20029;-72
2022/11/08 10:03:20;;;;;;;4.45;1.80;;;13.90;99.90;;;;;;5047122;28;20128;-70
2022/11/08 10:05:58;;;;;;;4.63;1.90;;;13.90;99.90;;;;;;5040986;28;20041;-70
2022/11/08 10:08:31;;;;;;;2.65;1.50;;;13.90;99.90;;;;;;5031148;28;20045;-67
2022/11/08 10:11:13;;;;;;;5.03;1.83;;;14.30;99.90;;;;;;5045519;28;20065;-67
2022/11/08 10:13:51;;;;;;;2.25;1.52;;;13.90;99.90;;;;;;5044720;28;20044;-64
2022/11/08 10:16:35;;;;;;;2.58;1.67;;;13.70;99.90;;;;;;5026798;28;20057;-65
2022/11/08 10:19:34;;;;;;;5.88;2.20;;;13.80;99.90;;;;;;5045962;28;20058;-65
2022/11/08 10:22:23;;;;;;;4.18;1.80;;;13.70;99.90;;;;;;5050093;28;20056;-65
2022/11/08 10:25:30;;;;;;;2.78;1.63;;;14.40;99.90;;;;;;5051594;28;20045;-65
2022/11/08 10:27:59;;;;;;;4.63;1.85;;;14.00;99.90;;;;;;5053629;28;20566;-65
2022/11/08 10:30:32;;;;;;;5.05;2.10;;;14.50;99.90;;;;;;5052908;28;20044;-66
2022/11/08 10:32:59;;;;;;;1.58;1.25;;;14.40;99.90;;;;;;5035594;28;20052;-65
2022/11/08 10:35:40;;;;;;;2.72;1.60;;;14.30;99.90;;;;;;5033601;28;20030;-66
2022/11/08 10:38:29;;;;;;;5.68;1.85;;;14.00;99.90;;;;;;5045508;28;20041;-65
2022/11/08 10:41:19;;;;;;;8.23;2.00;;;14.30;99.90;;;;;;5048438;28;20122;-65
2022/11/08 10:44:01;;;;;;;5.50;1.77;;;14.50;99.90;;;;;;5050765;28;20032;-65
2022/11/08 10:46:47;;;;;;;5.40;2.00;;;14.60;99.90;;;;;;5051242;28;20526;-64
2022/11/08 10:49:15;;;;;;;;;;;14.10;99.90;;;;;;5046632;28;20033;-65
2022/11/08 10:51:43;;;;;;;3.80;1.95;;;14.10;99.90;;;;;;5040458;28;19916;-66
2022/11/08 10:54:47;;;;;;;4.07;1.58;;;14.10;99.90;;;;;;5060399;28;20052;-66
2022/11/08 10:57:23;;;;;;;9.15;2.20;;;14.20;99.90;;;;;;5044046;28;20049;-67
2022/11/08 10:59:49;;;;;;;3.45;1.60;;;14.70;99.90;;;;;;5049281;28;20505;-67
2022/11/08 11:02:23;;;;;;;4.20;1.65;;;14.80;99.90;;;;;;5047933;28;20033;-66
2022/11/08 11:04:49;;;;;;;5.78;2.70;;;15.40;99.90;;;;;;5048076;28;20109;-67
2022/11/08 11:07:31;;;;;;;3.85;1.88;;;14.70;99.90;;;;;;5046385;28;20033;-67
2022/11/08 11:10:15;;;;;;;3.38;1.80;;;14.30;99.90;;;;;;5027131;28;20132;-66
2022/11/08 11:12:40;;;;;;;3.33;1.75;;;14.50;99.90;;;;;;5051007;28;20037;-68
2022/11/08 11:15:14;;;;;;;4.13;1.60;;;14.80;99.90;;;;;;5045338;28;20445;-67
2022/11/08 11:17:42;;;;;;;5.78;1.70;;;14.60;99.90;;;;;;5048253;28;20041;-67
2022/11/08 11:20:21;;;;;;;2.85;1.60;;;14.70;99.90;;;;;;5049098;28;20049;-66
2022/11/08 11:22:46;;;;;;;6.68;2.03;;;14.80;99.90;;;;;;5056535;28;20056;-68
2022/11/08 11:25:16;;;;;;;2.72;1.67;;;14.90;99.90;;;;;;5044265;28;20053;-67
2022/11/08 11:27:42;;;;;;;3.75;1.70;;;14.50;99.90;;;;;;5048109;28;20045;-67
2022/11/08 11:30:11;;;;;;;6.03;1.85;;;14.60;99.90;;;;;;5047445;28;20376;-68
2022/11/08 11:32:38;;;;;;;2.80;1.63;;;14.50;99.90;;;;;;5050465;28;20037;-67
2022/11/08 11:35:06;;;;;;;2.67;1.58;;;14.50;99.90;;;;;;5048485;28;20048;-66
2022/11/08 11:37:43;;;;;;;3.88;1.80;;;15.00;99.90;;;;;;5041783;28;20037;-66
2022/11/08 11:40:36;;;;;;;3.55;1.67;;;14.70;99.90;;;;;;5046415;28;20509;-70
2022/11/08 11:43:17;;;;;;;3.05;1.50;;;15.20;99.90;;;;;;5036081;28;20033;-66
2022/11/08 11:45:59;;;;;;;2.80;1.67;;;15.10;99.90;;;;;;5048022;28;20044;-66
2022/11/08 11:48:30;;;;;;;3.17;1.60;;;14.70;99.90;;;;;;5041350;28;20116;-69
2022/11/08 11:50:56;;;;;;;3.65;1.63;;;14.80;99.90;;;;;;5046764;28;20044;-65
2022/11/08 11:53:41;;;;;;;5.03;2.45;;;14.90;99.90;;;;;;5050274;28;20060;-66
2022/11/08 11:56:29;;;;;;;4.93;2.00;;;15.30;99.90;;;;;;5044954;28;20059;-66
2022/11/08 11:59:04;;;;;;;17.63;2.67;;;15.50;99.90;;;;;;5043744;28;20053;-66
2022/11/08 12:02:08;;;;;;;4.55;1.92;;;15.00;99.90;;;;;;5044638;28;20094;-66
2022/11/08 12:04:43;;;;;;;4.00;1.67;;;15.50;99.90;;;;;;5059243;28;20037;-66
2022/11/08 12:07:20;;;;;;;5.90;1.73;;;15.30;99.90;;;;;;5044624;28;20043;-66
2022/11/08 12:09:52;;;;;;;5.50;1.90;;;15.50;99.90;;;;;;5047470;28;20060;-66
2022/11/08 12:12:36;;;;;;;4.25;2.03;;;15.40;99.90;;;;;;5048515;28;20135;-66
2022/11/08 12:15:19;;;;;;;3.83;1.90;;;15.00;99.90;;;;;;5042852;28;20036;-66
2022/11/08 12:17:57;;;;;;;5.05;1.70;;;15.00;99.90;;;;;;5030715;28;20037;-68
2022/11/08 12:20:46;;;;;;;3.45;1.75;;;15.40;99.90;;;;;;5048027;28;20071;-66
2022/11/08 12:23:32;;;;;;;3.88;1.85;;;14.90;99.90;;;;;;5050309;28;20494;-65
2022/11/08 12:26:22;;;;;;;5.00;1.70;;;15.50;99.90;;;;;;5050464;28;20406;-66
2022/11/08 12:29:27;;;;;;;3.67;1.80;;;15.60;99.90;;;;;;5050214;28;20033;-66
2022/11/08 12:32:16;;;;;;;6.07;2.08;;;15.20;99.90;;;;;;5030711;28;20048;-67
2022/11/08 12:34:44;;;;;;;4.07;1.83;;;15.10;99.90;;;;;;5048432;28;20041;-67
2022/11/08 12:37:36;;;;;;;2.42;1.48;;;15.60;99.90;;;;;;5050454;28;20095;-67
2022/11/08 12:40:24;;;;;;;5.65;1.85;;;15.60;99.90;;;;;;5050153;28;20502;-66
2022/11/08 12:43:02;;;;;;;3.63;2.22;;;15.10;99.90;;;;;;5020361;28;20082;-66
2022/11/08 12:45:34;;;;;;;5.18;2.08;;;14.90;99.90;;;;;;5030377;28;20033;-66
2022/11/08 12:48:26;;;;;;;3.13;1.70;;;15.50;99.90;;;;;;5034683;28;20037;-66
2022/11/08 12:51:17;;;;;;;4.63;2.03;;;15.50;99.90;;;;;;5040838;28;20034;-66
2022/11/08 12:54:18;;;;;;;2.63;1.85;;;15.20;99.90;;;;;;5030635;28;20037;-66
2022/11/08 12:56:47;;;;;;;3.92;2.15;;;15.60;99.90;;;;;;5030216;28;20061;-67
2022/11/08 12:59:21;;;;;;;4.75;2.15;;;15.60;99.90;;;;;;5042463;28;20065;-66
2022/11/08 13:01:47;;;;;;;3.88;1.98;;;15.60;99.90;;;;;;5045326;28;20120;-65
2022/11/08 13:04:24;;;;;;;2.80;1.90;;;15.60;99.90;;;;;;5049008;28;20037;-66
2022/11/08 13:06:53;;;;;;;11.02;2.25;;;15.00;99.90;;;;;;5049742;28;20040;-66
2022/11/08 13:09:40;;;;;;;4.25;1.92;;;15.00;99.90;;;;;;5050005;28;20589;-66
2022/11/08 13:12:21;;;;;;;3.67;2.30;;;15.50;99.90;;;;;;5049919;28;20064;-66
2022/11/08 13:14:47;;;;;;;6.57;2.67;;;15.20;99.90;;;;;;5050295;28;20155;-66
2022/11/08 13:17:17;;;;;;;3.47;2.50;;;15.70;99.90;;;;;;5046198;28;20048;-66
2022/11/08 13:19:46;;;;;;;3.92;2.25;;;15.40;99.90;;;;;;5049644;28;20045;-66